sensor_id;sensor_type;location;lat;lon;timestamp;pressure;altitude;pressure_sealevel;temperature;humidity
50368;BME280;36281;34.132;-118.018;2022-12-18T00:01:14;99969.38;;;16.33;36.40
50368;BME280;36281;34.132;-118.018;2022-12-18T00:03:43;99973.78;;;16.22;37.00
50368;BME280;36281;34.132;-118.018;2022-12-18T00:06:12;99970.16;;;16.12;37.34
50368;BME280;36281;34.132;-118.018;2022-12-18T00:08:41;99975.13;;;16.03;37.98
50368;BME280;36281;34.132;-118.018;2022-12-18T00:11:10;99965.09;;;15.93;38.45
50368;BME280;36281;34.132;-118.018;2022-12-18T00:13:41;99969.13;;;15.79;38.98
50368;BME280;36281;34.132;-118.018;2022-12-18T00:16:10;99971.66;;;15.69;38.93
50368;BME280;36281;34.132;-118.018;2022-12-18T00:18:39;99968.78;;;15.59;38.72
50368;BME280;36281;34.132;-118.018;2022-12-18T00:21:09;99975.56;;;15.49;38.76
50368;BME280;36281;34.132;-118.018;2022-12-18T00:23:38;99978.31;;;15.38;38.67
50368;BME280;36281;34.132;-118.018;2022-12-18T00:26:07;99973.59;;;15.28;38.52
50368;BME280;36281;34.132;-118.018;2022-12-18T00:28:37;99971.81;;;15.17;38.03
50368;BME280;36281;34.132;-118.018;2022-12-18T00:31:07;99972.16;;;15.09;36.82
50368;BME280;36281;34.132;-118.018;2022-12-18T00:33:36;99984.50;;;14.98;35.97
50368;BME280;36281;34.132;-118.018;2022-12-18T00:36:05;99975.25;;;14.89;36.48
50368;BME280;36281;34.132;-118.018;2022-12-18T00:38:34;99982.47;;;14.77;39.26
50368;BME280;36281;34.132;-118.018;2022-12-18T00:41:02;99983.91;;;14.67;40.12
50368;BME280;36281;34.132;-118.018;2022-12-18T00:43:30;99993.06;;;14.60;40.48
50368;BME280;36281;34.132;-118.018;2022-12-18T00:45:59;99988.09;;;14.52;40.60
50368;BME280;36281;34.132;-118.018;2022-12-18T00:48:29;99991.09;;;14.43;40.34
50368;BME280;36281;34.132;-118.018;2022-12-18T00:50:57;99991.44;;;14.35;39.18
50368;BME280;36281;34.132;-118.018;2022-12-18T00:53:25;99997.25;;;14.32;40.33
50368;BME280;36281;34.132;-118.018;2022-12-18T00:55:54;99991.22;;;14.25;41.32
50368;BME280;36281;34.132;-118.018;2022-12-18T00:58:22;100002.56;;;14.20;41.45
50368;BME280;36281;34.132;-118.018;2022-12-18T01:00:50;99996.78;;;14.12;40.30
50368;BME280;36281;34.132;-118.018;2022-12-18T01:03:18;99993.66;;;14.03;40.27
50368;BME280;36281;34.132;-118.018;2022-12-18T01:05:48;99995.16;;;13.99;41.87
50368;BME280;36281;34.132;-118.018;2022-12-18T01:08:16;99992.94;;;13.96;42.34
50368;BME280;36281;34.132;-118.018;2022-12-18T01:10:44;99997.34;;;13.90;42.30
50368;BME280;36281;34.132;-118.018;2022-12-18T01:13:13;100000.94;;;13.84;42.72
50368;BME280;36281;34.132;-118.018;2022-12-18T01:15:47;99996.53;;;13.78;43.18
50368;BME280;36281;34.132;-118.018;2022-12-18T01:18:16;100002.31;;;13.75;42.89
50368;BME280;36281;34.132;-118.018;2022-12-18T01:20:44;100001.94;;;13.71;42.88
50368;BME280;36281;34.132;-118.018;2022-12-18T01:23:14;99999.97;;;13.67;42.32
50368;BME280;36281;34.132;-118.018;2022-12-18T01:25:42;99999.63;;;13.63;41.91
50368;BME280;36281;34.132;-118.018;2022-12-18T01:28:10;99994.75;;;13.60;41.84
50368;BME280;36281;34.132;-118.018;2022-12-18T01:30:38;99998.09;;;13.56;41.05
50368;BME280;36281;34.132;-118.018;2022-12-18T01:33:07;99998.34;;;13.54;41.42
50368;BME280;36281;34.132;-118.018;2022-12-18T01:35:39;99997.72;;;13.52;41.49
50368;BME280;36281;34.132;-118.018;2022-12-18T01:38:08;99994.72;;;13.49;41.33
50368;BME280;36281;34.132;-118.018;2022-12-18T01:40:38;99989.06;;;13.45;41.49
50368;BME280;36281;34.132;-118.018;2022-12-18T01:43:08;99994.59;;;13.43;41.25
50368;BME280;36281;34.132;-118.018;2022-12-18T01:45:37;99992.97;;;13.42;41.58
50368;BME280;36281;34.132;-118.018;2022-12-18T01:48:05;99989.16;;;13.38;42.16
50368;BME280;36281;34.132;-118.018;2022-12-18T01:50:36;99992.25;;;13.35;41.67
50368;BME280;36281;34.132;-118.018;2022-12-18T01:53:06;100001.72;;;13.31;42.05
50368;BME280;36281;34.132;-118.018;2022-12-18T01:55:36;99995.69;;;13.24;41.18
50368;BME280;36281;34.132;-118.018;2022-12-18T01:58:07;99997.75;;;13.22;40.41
50368;BME280;36281;34.132;-118.018;2022-12-18T02:00:35;100003.06;;;13.22;40.76
50368;BME280;36281;34.132;-118.018;2022-12-18T02:03:03;100001.06;;;13.17;42.13
50368;BME280;36281;34.132;-118.018;2022-12-18T02:05:36;100006.22;;;13.12;41.52
50368;BME280;36281;34.132;-118.018;2022-12-18T02:08:08;100007.94;;;13.07;40.40
50368;BME280;36281;34.132;-118.018;2022-12-18T02:10:41;100011.88;;;13.04;40.78
50368;BME280;36281;34.132;-118.018;2022-12-18T02:13:14;100009.66;;;13.01;40.63
50368;BME280;36281;34.132;-118.018;2022-12-18T02:15:48;100008.72;;;12.96;40.58
50368;BME280;36281;34.132;-118.018;2022-12-18T02:18:19;100003.03;;;12.92;40.80
50368;BME280;36281;34.132;-118.018;2022-12-18T02:20:50;100002.69;;;12.88;39.94
50368;BME280;36281;34.132;-118.018;2022-12-18T02:23:26;99998.22;;;12.82;39.81
50368;BME280;36281;34.132;-118.018;2022-12-18T02:26:14;99996.84;;;12.80;40.47
50368;BME280;36281;34.132;-118.018;2022-12-18T02:28:45;100001.22;;;12.74;40.54
50368;BME280;36281;34.132;-118.018;2022-12-18T02:31:14;99998.84;;;12.66;41.13
50368;BME280;36281;34.132;-118.018;2022-12-18T02:33:44;99998.91;;;12.59;40.69
50368;BME280;36281;34.132;-118.018;2022-12-18T02:36:13;99997.97;;;12.54;41.30
50368;BME280;36281;34.132;-118.018;2022-12-18T02:38:44;100004.38;;;12.46;41.83
50368;BME280;36281;34.132;-118.018;2022-12-18T02:41:15;100000.97;;;12.39;42.97
50368;BME280;36281;34.132;-118.018;2022-12-18T02:43:47;100005.19;;;12.28;42.18
50368;BME280;36281;34.132;-118.018;2022-12-18T02:46:26;100004.19;;;12.23;42.76
50368;BME280;36281;34.132;-118.018;2022-12-18T02:48:57;100002.63;;;12.15;42.99
50368;BME280;36281;34.132;-118.018;2022-12-18T02:51:29;100000.47;;;12.05;43.32
50368;BME280;36281;34.132;-118.018;2022-12-18T02:53:58;100001.34;;;11.99;43.70
50368;BME280;36281;34.132;-118.018;2022-12-18T02:56:32;99994.91;;;11.88;43.20
50368;BME280;36281;34.132;-118.018;2022-12-18T02:59:04;100000.88;;;11.77;43.99
50368;BME280;36281;34.132;-118.018;2022-12-18T03:01:35;100005.19;;;11.72;44.59
50368;BME280;36281;34.132;-118.018;2022-12-18T03:04:08;100011.97;;;11.68;43.92
50368;BME280;36281;34.132;-118.018;2022-12-18T03:06:39;100020.38;;;11.64;44.71
50368;BME280;36281;34.132;-118.018;2022-12-18T03:09:09;100022.47;;;11.56;45.42
50368;BME280;36281;34.132;-118.018;2022-12-18T03:11:40;100023.31;;;11.50;45.25
50368;BME280;36281;34.132;-118.018;2022-12-18T03:14:28;100023.50;;;11.48;45.80
50368;BME280;36281;34.132;-118.018;2022-12-18T03:17:03;100026.22;;;11.42;47.01
50368;BME280;36281;34.132;-118.018;2022-12-18T03:19:32;100030.94;;;11.33;47.79
50368;BME280;36281;34.132;-118.018;2022-12-18T03:22:02;100036.28;;;11.26;46.75
50368;BME280;36281;34.132;-118.018;2022-12-18T03:24:32;100031.84;;;11.20;46.88
50368;BME280;36281;34.132;-118.018;2022-12-18T03:27:02;100038.81;;;11.15;47.53
50368;BME280;36281;34.132;-118.018;2022-12-18T03:29:33;100025.16;;;11.11;48.30
50368;BME280;36281;34.132;-118.018;2022-12-18T03:32:04;100031.09;;;11.06;47.80
50368;BME280;36281;34.132;-118.018;2022-12-18T03:34:35;100033.34;;;11.03;47.93
50368;BME280;36281;34.132;-118.018;2022-12-18T03:37:06;100038.66;;;10.96;49.03
50368;BME280;36281;34.132;-118.018;2022-12-18T03:39:34;100039.88;;;10.94;48.24
50368;BME280;36281;34.132;-118.018;2022-12-18T03:42:06;100032.16;;;10.92;47.83
50368;BME280;36281;34.132;-118.018;2022-12-18T03:44:38;100036.25;;;10.88;48.45
50368;BME280;36281;34.132;-118.018;2022-12-18T03:47:09;100047.47;;;10.83;49.51
50368;BME280;36281;34.132;-118.018;2022-12-18T03:49:43;100041.16;;;10.78;49.33
50368;BME280;36281;34.132;-118.018;2022-12-18T03:52:15;100036.94;;;10.70;48.92
50368;BME280;36281;34.132;-118.018;2022-12-18T03:54:45;100037.34;;;10.67;49.05
50368;BME280;36281;34.132;-118.018;2022-12-18T03:57:15;100040.38;;;10.64;49.87
50368;BME280;36281;34.132;-118.018;2022-12-18T03:59:44;100041.03;;;10.59;49.44
50368;BME280;36281;34.132;-118.018;2022-12-18T04:02:13;100036.53;;;10.60;49.33
50368;BME280;36281;34.132;-118.018;2022-12-18T04:04:44;100037.75;;;10.57;49.63
50368;BME280;36281;34.132;-118.018;2022-12-18T04:07:12;100045.72;;;10.57;49.18
50368;BME280;36281;34.132;-118.018;2022-12-18T04:09:41;100039.59;;;10.57;49.22
50368;BME280;36281;34.132;-118.018;2022-12-18T04:12:10;100053.06;;;10.55;49.47
50368;BME280;36281;34.132;-118.018;2022-12-18T04:14:39;100048.97;;;10.53;49.75
50368;BME280;36281;34.132;-118.018;2022-12-18T04:17:08;100046.94;;;10.55;50.01
50368;BME280;36281;34.132;-118.018;2022-12-18T04:19:36;100050.00;;;10.52;50.85
50368;BME280;36281;34.132;-118.018;2022-12-18T04:22:04;100045.09;;;10.49;50.24
50368;BME280;36281;34.132;-118.018;2022-12-18T04:24:32;100053.88;;;10.49;50.23
50368;BME280;36281;34.132;-118.018;2022-12-18T04:27:00;100054.69;;;10.50;50.33
50368;BME280;36281;34.132;-118.018;2022-12-18T04:29:29;100052.06;;;10.50;51.05
50368;BME280;36281;34.132;-118.018;2022-12-18T04:31:59;100051.25;;;10.49;50.39
50368;BME280;36281;34.132;-118.018;2022-12-18T04:34:27;100046.13;;;10.48;51.45
50368;BME280;36281;34.132;-118.018;2022-12-18T04:36:55;100059.38;;;10.41;52.82
50368;BME280;36281;34.132;-118.018;2022-12-18T04:39:23;100052.06;;;10.37;52.55
50368;BME280;36281;34.132;-118.018;2022-12-18T04:41:51;100055.72;;;10.35;53.21
50368;BME280;36281;34.132;-118.018;2022-12-18T04:44:20;100050.03;;;10.32;52.76
50368;BME280;36281;34.132;-118.018;2022-12-18T04:46:48;100059.81;;;10.25;53.12
50368;BME280;36281;34.132;-118.018;2022-12-18T04:49:18;100050.81;;;10.19;53.55
50368;BME280;36281;34.132;-118.018;2022-12-18T04:51:46;100055.72;;;10.16;53.14
50368;BME280;36281;34.132;-118.018;2022-12-18T04:54:14;100050.41;;;10.16;52.73
50368;BME280;36281;34.132;-118.018;2022-12-18T04:56:42;100052.88;;;10.10;53.29
50368;BME280;36281;34.132;-118.018;2022-12-18T04:59:11;100054.69;;;10.10;53.06
50368;BME280;36281;34.132;-118.018;2022-12-18T05:01:39;100060.81;;;10.10;53.21
50368;BME280;36281;34.132;-118.018;2022-12-18T05:04:07;100061.19;;;10.07;53.11
50368;BME280;36281;34.132;-118.018;2022-12-18T05:06:37;100067.31;;;10.08;53.86
50368;BME280;36281;34.132;-118.018;2022-12-18T05:09:05;100062.00;;;10.08;53.74
50368;BME280;36281;34.132;-118.018;2022-12-18T05:11:33;100060.78;;;10.04;53.74
50368;BME280;36281;34.132;-118.018;2022-12-18T05:14:02;100052.44;;;9.94;53.54
50368;BME280;36281;34.132;-118.018;2022-12-18T05:16:30;100063.03;;;10.00;53.44
50368;BME280;36281;34.132;-118.018;2022-12-18T05:18:59;100066.50;;;10.01;53.27
50368;BME280;36281;34.132;-118.018;2022-12-18T05:21:27;100063.84;;;10.01;53.37
50368;BME280;36281;34.132;-118.018;2022-12-18T05:23:59;100065.69;;;10.00;53.63
50368;BME280;36281;34.132;-118.018;2022-12-18T05:26:27;100062.22;;;10.00;54.07
50368;BME280;36281;34.132;-118.018;2022-12-18T05:28:55;100064.03;;;9.99;55.11
50368;BME280;36281;34.132;-118.018;2022-12-18T05:31:23;100063.66;;;9.96;55.45
50368;BME280;36281;34.132;-118.018;2022-12-18T05:33:51;100061.19;;;9.94;55.25
50368;BME280;36281;34.132;-118.018;2022-12-18T05:36:20;100060.16;;;9.89;55.66
50368;BME280;36281;34.132;-118.018;2022-12-18T05:38:48;100063.03;;;9.87;55.71
50368;BME280;36281;34.132;-118.018;2022-12-18T05:41:18;100064.84;;;9.87;56.14
50368;BME280;36281;34.132;-118.018;2022-12-18T05:43:46;100067.91;;;9.83;55.81
50368;BME280;36281;34.132;-118.018;2022-12-18T05:46:15;100063.84;;;9.81;55.39
50368;BME280;36281;34.132;-118.018;2022-12-18T05:48:44;100065.03;;;9.78;55.39
50368;BME280;36281;34.132;-118.018;2022-12-18T05:51:13;100071.75;;;9.74;56.23
50368;BME280;36281;34.132;-118.018;2022-12-18T05:53:42;100071.94;;;9.73;56.30
50368;BME280;36281;34.132;-118.018;2022-12-18T05:56:12;100067.25;;;9.68;56.03
50368;BME280;36281;34.132;-118.018;2022-12-18T05:58:42;100076.59;;;9.64;55.28
50368;BME280;36281;34.132;-118.018;2022-12-18T06:01:12;100070.31;;;9.65;55.11
50368;BME280;36281;34.132;-118.018;2022-12-18T06:03:40;100067.25;;;9.62;55.75
50368;BME280;36281;34.132;-118.018;2022-12-18T06:06:15;100071.75;;;9.61;55.95
50368;BME280;36281;34.132;-118.018;2022-12-18T06:08:44;100068.47;;;9.59;56.51
50368;BME280;36281;34.132;-118.018;2022-12-18T06:11:13;100071.91;;;9.59;56.11
50368;BME280;36281;34.132;-118.018;2022-12-18T06:13:43;100068.28;;;9.61;55.58
50368;BME280;36281;34.132;-118.018;2022-12-18T06:16:11;100067.47;;;9.60;55.59
50368;BME280;36281;34.132;-118.018;2022-12-18T06:18:39;100060.34;;;9.61;55.78
50368;BME280;36281;34.132;-118.018;2022-12-18T06:21:07;100065.63;;;9.61;55.26
50368;BME280;36281;34.132;-118.018;2022-12-18T06:23:35;100067.47;;;9.60;55.28
50368;BME280;36281;34.132;-118.018;2022-12-18T06:26:04;100078.22;;;9.58;55.20
50368;BME280;36281;34.132;-118.018;2022-12-18T06:28:33;100071.91;;;9.59;55.25
50368;BME280;36281;34.132;-118.018;2022-12-18T06:31:04;100063.38;;;9.57;55.57
50368;BME280;36281;34.132;-118.018;2022-12-18T06:33:32;100067.03;;;9.56;54.97
50368;BME280;36281;34.132;-118.018;2022-12-18T06:36:01;100061.97;;;9.55;54.96
50368;BME280;36281;34.132;-118.018;2022-12-18T06:38:31;100064.19;;;9.51;54.49
50368;BME280;36281;34.132;-118.018;2022-12-18T06:40:59;100065.00;;;9.52;54.08
50368;BME280;36281;34.132;-118.018;2022-12-18T06:43:27;100052.78;;;9.51;54.14
50368;BME280;36281;34.132;-118.018;2022-12-18T06:45:58;100056.84;;;9.53;53.86
50368;BME280;36281;34.132;-118.018;2022-12-18T06:48:28;100056.03;;;9.53;54.06
50368;BME280;36281;34.132;-118.018;2022-12-18T06:50:56;100056.03;;;9.53;54.37
50368;BME280;36281;34.132;-118.018;2022-12-18T06:53:24;100048.31;;;9.51;53.84
50368;BME280;36281;34.132;-118.018;2022-12-18T06:55:58;100054.63;;;9.50;52.76
50368;BME280;36281;34.132;-118.018;2022-12-18T06:58:30;100046.69;;;9.50;52.87
50368;BME280;36281;34.132;-118.018;2022-12-18T07:01:02;100050.34;;;9.49;53.91
50368;BME280;36281;34.132;-118.018;2022-12-18T07:03:32;100047.91;;;9.48;53.62
50368;BME280;36281;34.132;-118.018;2022-12-18T07:06:00;100060.50;;;9.46;53.73
50368;BME280;36281;34.132;-118.018;2022-12-18T07:08:28;100056.22;;;9.38;54.67
50368;BME280;36281;34.132;-118.018;2022-12-18T07:10:57;100048.28;;;9.38;54.50
50368;BME280;36281;34.132;-118.018;2022-12-18T07:13:25;100054.97;;;9.34;55.11
50368;BME280;36281;34.132;-118.018;2022-12-18T07:15:54;100055.19;;;9.32;55.06
50368;BME280;36281;34.132;-118.018;2022-12-18T07:18:22;100045.84;;;9.30;55.51
50368;BME280;36281;34.132;-118.018;2022-12-18T07:20:52;100047.41;;;9.24;55.50
50368;BME280;36281;34.132;-118.018;2022-12-18T07:23:20;100044.56;;;9.19;55.96
50368;BME280;36281;34.132;-118.018;2022-12-18T07:25:48;100043.13;;;9.17;55.22
50368;BME280;36281;34.132;-118.018;2022-12-18T07:28:17;100046.38;;;9.12;55.35
50368;BME280;36281;34.132;-118.018;2022-12-18T07:30:45;100046.16;;;9.07;56.44
50368;BME280;36281;34.132;-118.018;2022-12-18T07:33:13;100046.53;;;9.04;56.24
50368;BME280;36281;34.132;-118.018;2022-12-18T07:35:41;100052.84;;;9.03;56.34
50368;BME280;36281;34.132;-118.018;2022-12-18T07:38:11;100046.50;;;8.97;56.30
50368;BME280;36281;34.132;-118.018;2022-12-18T07:40:40;100048.94;;;8.92;56.54
50368;BME280;36281;34.132;-118.018;2022-12-18T07:43:08;100047.47;;;8.90;56.16
50368;BME280;36281;34.132;-118.018;2022-12-18T07:45:36;100048.91;;;8.86;55.85
50368;BME280;36281;34.132;-118.018;2022-12-18T07:48:04;100045.03;;;8.82;56.03
50368;BME280;36281;34.132;-118.018;2022-12-18T07:50:33;100050.88;;;8.77;55.94
50368;BME280;36281;34.132;-118.018;2022-12-18T07:53:01;100048.44;;;8.75;55.51
50368;BME280;36281;34.132;-118.018;2022-12-18T07:55:34;100039.88;;;8.73;56.27
50368;BME280;36281;34.132;-118.018;2022-12-18T07:58:23;100030.56;;;8.71;56.31
50368;BME280;36281;34.132;-118.018;2022-12-18T08:00:51;100027.69;;;8.72;56.33
50368;BME280;36281;34.132;-118.018;2022-12-18T08:03:20;100028.91;;;8.70;55.63
50368;BME280;36281;34.132;-118.018;2022-12-18T08:05:48;100025.03;;;8.66;55.49
50368;BME280;36281;34.132;-118.018;2022-12-18T08:08:16;100026.22;;;8.63;55.52
50368;BME280;36281;34.132;-118.018;2022-12-18T08:10:46;100023.38;;;8.65;56.42
50368;BME280;36281;34.132;-118.018;2022-12-18T08:13:15;100013.59;;;8.59;55.78
50368;BME280;36281;34.132;-118.018;2022-12-18T08:15:43;100015.22;;;8.60;55.45
50368;BME280;36281;34.132;-118.018;2022-12-18T08:18:11;100019.69;;;8.59;56.58
50368;BME280;36281;34.132;-118.018;2022-12-18T08:20:40;100007.91;;;8.55;56.14
50368;BME280;36281;34.132;-118.018;2022-12-18T08:23:08;100006.28;;;8.54;55.95
50368;BME280;36281;34.132;-118.018;2022-12-18T08:25:36;100003.63;;;8.54;56.26
50368;BME280;36281;34.132;-118.018;2022-12-18T08:28:06;99995.53;;;8.56;55.98
50368;BME280;36281;34.132;-118.018;2022-12-18T08:30:35;99991.44;;;8.53;56.17
50368;BME280;36281;34.132;-118.018;2022-12-18T08:33:03;99995.72;;;8.54;55.83
50368;BME280;36281;34.132;-118.018;2022-12-18T08:35:34;100000.59;;;8.50;56.32
50368;BME280;36281;34.132;-118.018;2022-12-18T08:38:06;99990.22;;;8.49;56.39
50368;BME280;36281;34.132;-118.018;2022-12-18T08:40:35;99989.38;;;8.48;56.66
50368;BME280;36281;34.132;-118.018;2022-12-18T08:43:03;99989.97;;;8.44;57.39
50368;BME280;36281;34.132;-118.018;2022-12-18T08:45:51;99994.66;;;8.42;57.63
50368;BME280;36281;34.132;-118.018;2022-12-18T08:48:20;99993.03;;;8.41;57.30
50368;BME280;36281;34.132;-118.018;2022-12-18T08:50:53;99998.31;;;8.41;57.39
50368;BME280;36281;34.132;-118.018;2022-12-18T08:53:21;99997.66;;;8.39;58.26
50368;BME280;36281;34.132;-118.018;2022-12-18T08:55:50;100000.31;;;8.39;58.08
50368;BME280;36281;34.132;-118.018;2022-12-18T08:58:18;99997.41;;;8.34;58.42
50368;BME280;36281;34.132;-118.018;2022-12-18T09:00:46;100002.66;;;8.34;58.46
50368;BME280;36281;34.132;-118.018;2022-12-18T09:03:16;99997.81;;;8.31;59.32
50368;BME280;36281;34.132;-118.018;2022-12-18T09:05:45;99997.81;;;8.31;59.02
50368;BME280;36281;34.132;-118.018;2022-12-18T09:08:14;99991.66;;;8.23;59.41
50368;BME280;36281;34.132;-118.018;2022-12-18T09:10:42;99992.88;;;8.21;59.42
50368;BME280;36281;34.132;-118.018;2022-12-18T09:13:11;99987.97;;;8.18;58.98
50368;BME280;36281;34.132;-118.018;2022-12-18T09:15:43;99988.34;;;8.15;59.33
50368;BME280;36281;34.132;-118.018;2022-12-18T09:18:13;99992.00;;;8.14;59.09
50368;BME280;36281;34.132;-118.018;2022-12-18T09:20:43;99990.97;;;8.15;58.75
50368;BME280;36281;34.132;-118.018;2022-12-18T09:23:11;99994.19;;;8.10;58.37
50368;BME280;36281;34.132;-118.018;2022-12-18T09:25:40;99996.44;;;8.13;57.92
50368;BME280;36281;34.132;-118.018;2022-12-18T09:28:10;99993.00;;;8.13;58.24
50368;BME280;36281;34.132;-118.018;2022-12-18T09:30:38;100001.72;;;8.13;58.33
50368;BME280;36281;34.132;-118.018;2022-12-18T09:33:07;99994.63;;;8.14;57.88
50368;BME280;36281;34.132;-118.018;2022-12-18T09:35:40;100000.72;;;8.14;57.59
50368;BME280;36281;34.132;-118.018;2022-12-18T09:38:11;99999.69;;;8.15;57.65
50368;BME280;36281;34.132;-118.018;2022-12-18T09:40:41;100004.38;;;8.13;57.79
50368;BME280;36281;34.132;-118.018;2022-12-18T09:43:12;100006.19;;;8.13;57.84
50368;BME280;36281;34.132;-118.018;2022-12-18T09:45:42;100005.38;;;8.12;57.87
50368;BME280;36281;34.132;-118.018;2022-12-18T09:48:11;99998.84;;;8.08;57.82
50368;BME280;36281;34.132;-118.018;2022-12-18T09:50:44;100015.69;;;8.07;58.24
50368;BME280;36281;34.132;-118.018;2022-12-18T09:53:15;100004.50;;;8.05;58.04
50368;BME280;36281;34.132;-118.018;2022-12-18T09:55:46;100006.91;;;8.00;57.94
50368;BME280;36281;34.132;-118.018;2022-12-18T09:58:18;100014.19;;;7.98;58.00
50368;BME280;36281;34.132;-118.018;2022-12-18T10:00:48;100007.66;;;7.94;57.64
50368;BME280;36281;34.132;-118.018;2022-12-18T10:03:19;100006.81;;;7.87;58.46
50368;BME280;36281;34.132;-118.018;2022-12-18T10:05:49;100007.19;;;7.84;58.38
50368;BME280;36281;34.132;-118.018;2022-12-18T10:08:23;100009.00;;;7.83;58.94
50368;BME280;36281;34.132;-118.018;2022-12-18T10:10:53;100004.31;;;7.78;58.37
50368;BME280;36281;34.132;-118.018;2022-12-18T10:13:26;100009.13;;;7.75;59.05
50368;BME280;36281;34.132;-118.018;2022-12-18T10:16:00;100008.06;;;7.69;59.69
50368;BME280;36281;34.132;-118.018;2022-12-18T10:18:36;100018.19;;;7.66;59.41
50368;BME280;36281;34.132;-118.018;2022-12-18T10:21:09;100010.59;;;7.56;59.64
50368;BME280;36281;34.132;-118.018;2022-12-18T10:23:41;100014.22;;;7.55;60.00
50368;BME280;36281;34.132;-118.018;2022-12-18T10:26:15;100013.00;;;7.51;59.54
50368;BME280;36281;34.132;-118.018;2022-12-18T10:28:43;100013.72;;;7.45;59.36
50368;BME280;36281;34.132;-118.018;2022-12-18T10:31:12;100014.47;;;7.39;59.42
50368;BME280;36281;34.132;-118.018;2022-12-18T10:33:43;100015.22;;;7.33;59.65
50368;BME280;36281;34.132;-118.018;2022-12-18T10:36:12;100013.97;;;7.29;59.73
50368;BME280;36281;34.132;-118.018;2022-12-18T10:38:42;100015.53;;;7.23;59.67
50368;BME280;36281;34.132;-118.018;2022-12-18T10:41:23;100014.25;;;7.19;59.97
50368;BME280;36281;34.132;-118.018;2022-12-18T10:46:48;100018.19;;;7.08;59.93
50368;BME280;36281;34.132;-118.018;2022-12-18T10:49:21;100022.38;;;7.03;59.89
50368;BME280;36281;34.132;-118.018;2022-12-18T10:51:51;100018.28;;;7.00;60.07
50368;BME280;36281;34.132;-118.018;2022-12-18T10:54:21;100014.84;;;6.99;60.07
50368;BME280;36281;34.132;-118.018;2022-12-18T10:56:50;100019.28;;;6.99;60.03
50368;BME280;36281;34.132;-118.018;2022-12-18T10:59:18;100011.75;;;6.96;60.67
50368;BME280;36281;34.132;-118.018;2022-12-18T11:01:47;100006.88;;;6.93;60.89
50368;BME280;36281;34.132;-118.018;2022-12-18T11:04:17;100004.25;;;6.93;61.43
50368;BME280;36281;34.132;-118.018;2022-12-18T11:06:52;100004.59;;;6.90;60.53
50368;BME280;36281;34.132;-118.018;2022-12-18T11:09:23;100008.25;;;6.89;60.41
50368;BME280;36281;34.132;-118.018;2022-12-18T11:11:52;100005.97;;;6.86;60.38
50368;BME280;36281;34.132;-118.018;2022-12-18T11:14:22;100005.69;;;6.81;60.57
50368;BME280;36281;34.132;-118.018;2022-12-18T11:16:50;99998.19;;;6.78;60.57
50368;BME280;36281;34.132;-118.018;2022-12-18T11:19:39;99990.66;;;6.74;61.16
50368;BME280;36281;34.132;-118.018;2022-12-18T11:22:17;99988.56;;;6.70;61.28
50368;BME280;36281;34.132;-118.018;2022-12-18T11:24:53;99986.84;;;6.62;61.61
50368;BME280;36281;34.132;-118.018;2022-12-18T11:27:47;99974.88;;;6.60;61.31
50368;BME280;36281;34.132;-118.018;2022-12-18T11:30:20;99973.97;;;6.53;61.08
50368;BME280;36281;34.132;-118.018;2022-12-18T11:32:49;99975.06;;;6.43;62.09
50368;BME280;36281;34.132;-118.018;2022-12-18T11:35:19;99975.00;;;6.37;62.33
50368;BME280;36281;34.132;-118.018;2022-12-18T11:37:49;99964.63;;;6.35;62.41
50368;BME280;36281;34.132;-118.018;2022-12-18T11:40:20;99960.38;;;6.34;62.63
50368;BME280;36281;34.132;-118.018;2022-12-18T11:42:51;99959.75;;;6.32;62.61
50368;BME280;36281;34.132;-118.018;2022-12-18T11:45:28;99947.94;;;6.28;62.10
50368;BME280;36281;34.132;-118.018;2022-12-18T11:48:00;99946.13;;;6.29;62.23
50368;BME280;36281;34.132;-118.018;2022-12-18T11:50:31;99948.22;;;6.18;62.66
50368;BME280;36281;34.132;-118.018;2022-12-18T11:53:01;99950.56;;;6.13;62.56
50368;BME280;36281;34.132;-118.018;2022-12-18T11:55:37;99951.38;;;6.14;62.42
50368;BME280;36281;34.132;-118.018;2022-12-18T11:58:10;99947.47;;;6.10;62.22
50368;BME280;36281;34.132;-118.018;2022-12-18T12:00:41;99950.50;;;6.07;62.06
50368;BME280;36281;34.132;-118.018;2022-12-18T12:03:15;99953.00;;;6.00;62.51
50368;BME280;36281;34.132;-118.018;2022-12-18T12:05:49;99957.44;;;6.00;61.77
50368;BME280;36281;34.132;-118.018;2022-12-18T12:08:26;99959.19;;;5.92;62.89
50368;BME280;36281;34.132;-118.018;2022-12-18T12:11:01;99956.66;;;5.91;61.99
50368;BME280;36281;34.132;-118.018;2022-12-18T12:13:38;99954.41;;;5.88;62.67
50368;BME280;36281;34.132;-118.018;2022-12-18T12:16:10;99950.97;;;5.87;62.88
50368;BME280;36281;34.132;-118.018;2022-12-18T12:18:46;99961.03;;;5.84;62.76
50368;BME280;36281;34.132;-118.018;2022-12-18T12:21:18;99967.00;;;5.78;62.40
50368;BME280;36281;34.132;-118.018;2022-12-18T12:23:50;99960.94;;;5.77;63.09
50368;BME280;36281;34.132;-118.018;2022-12-18T12:26:24;99957.47;;;5.77;62.90
50368;BME280;36281;34.132;-118.018;2022-12-18T12:28:58;99957.66;;;5.75;63.46
50368;BME280;36281;34.132;-118.018;2022-12-18T12:31:31;99952.75;;;5.72;63.56
50368;BME280;36281;34.132;-118.018;2022-12-18T12:34:04;99956.53;;;5.69;63.76
50368;BME280;36281;34.132;-118.018;2022-12-18T12:36:38;99957.06;;;5.65;64.29
50368;BME280;36281;34.132;-118.018;2022-12-18T12:39:10;99954.78;;;5.62;64.13
50368;BME280;36281;34.132;-118.018;2022-12-18T12:41:42;99951.06;;;5.56;64.43
50368;BME280;36281;34.132;-118.018;2022-12-18T12:44:30;99956.31;;;5.56;64.51
50368;BME280;36281;34.132;-118.018;2022-12-18T12:47:26;99957.41;;;5.47;64.53
50368;BME280;36281;34.132;-118.018;2022-12-18T12:49:58;99966.53;;;5.51;64.46